Flight Track Log - Related Links

Times and Time Zones

All times are in EDT time to prevent confusion due to time zone crossing. See the LXJ342 flight status page for this flight to view local times or setup timezone preferences in your user account.

Time Position Orientation Groundspeed Altitude Reporting Facility
EDT Latitude Longitude Course Direction KTS MPH feet Rate Location/Type
Wed 05:41:57 PM 36.2683 -93.9169 107° East 313 360 11,400  Level Memphis Center
Wed 05:42:57 PM 36.2633 -93.8033 93° East 318 366 13,600 2,250 Climbing Memphis Center
Wed 05:43:57 PM 36.2606 -93.6747 91° East 327 376 15,900 2,200 Climbing Memphis Center
Wed 05:44:00 PM 36.3060 -93.3477 99° East  Level FlightAware Approximate
Wed 05:44:57 PM 36.2533 -93.5458 94° East 341 392 18,000  Level Memphis Center
Wed 05:45:00 PM 36.2927 -93.1972 95° East  Level FlightAware Approximate
Wed 05:45:57 PM 36.2483 -93.4117 93° East 366 421 20,200  Level Memphis Center
Wed 05:46:00 PM 36.2833 -93.0462 90° East  Level FlightAware Approximate
Wed 05:46:57 PM 36.2414 -93.2700 93° East 392 451 22,400  Level Memphis Center
Wed 05:47:00 PM 36.2741 -92.8964 107° East  Level FlightAware Approximate
Wed 05:47:57 PM 36.2342 -93.1256 94° East 407 468 24,600  Level Memphis Center
Wed 05:48:57 PM 36.2292 -92.9814 92° East 413 475 26,500 1,750 Climbing Memphis Center
Wed 05:49:57 PM 36.2217 -92.8344 94° East 420 483 28,100 1,600 Climbing Memphis Center
Wed 05:50:57 PM 36.2142 -92.6825 93° East 431 496 29,700 1,550 Climbing Memphis Center
Wed 05:51:57 PM 36.2044 -92.5306 94° East 441 507 31,200 1,300 Climbing Memphis Center
Wed 05:52:57 PM 36.1967 -92.3758 94° East 441 507 32,300 1,100 Climbing Memphis Center
Wed 05:53:57 PM 36.1886 -92.2189 94° East 446 513 33,400 1,050 Climbing Memphis Center
Wed 05:54:57 PM 36.1742 -92.0617 96° East 451 519 34,400 1,050 Climbing Memphis Center
Wed 05:55:57 PM 36.1658 -91.9047 94° East 451 519 35,500 1,000 Climbing Memphis Center
Wed 05:56:57 PM 36.1592 -91.7478 93° East 456 525 36,400 950 Climbing Memphis Center
Wed 05:57:57 PM 36.1506 -91.5883 94° East 462 532 37,400 908 Climbing Memphis Center
Wed 05:58:56 PM 36.1353 -91.4286 97° East 462 532 38,200 650 Climbing Memphis Center
Wed 05:59:57 PM 36.1261 -91.2717 94° East 462 532 38,700 545 Climbing Memphis Center
Wed 06:00:57 PM 36.1189 -91.1150 93° East 462 532 39,300 650 Climbing Memphis Center
Wed 06:01:57 PM 36.1092 -90.9581 94° East 462 532 40,000 655 Climbing Memphis Center
Wed 06:02:56 PM 36.1119 -90.8042 89° East 457 526 40,600 500 Climbing Memphis Center
Wed 06:03:57 PM 36.1144 -90.6525 89° East 446 513 41,000 198 Climbing Memphis Center
Wed 06:04:57 PM 36.1169 -90.4983 89° East 446 513 41,000  Level Memphis Center
Wed 06:05:56 PM 36.1211 -90.3389 88° East 446 513 41,000  Level Memphis Center
Wed 06:06:56 PM 36.1231 -90.1797 89° East 452 520 41,000  Level Memphis Center
Wed 06:07:56 PM 36.1269 -90.0153 88° East 465 535 41,000  Level Memphis Center
Wed 06:08:56 PM 36.1283 -89.8558 89° East 465 535 41,000  Level Memphis Center
Wed 06:09:57 PM 36.1297 -89.6939 89° East 465 535 41,000  Level Memphis Center
Wed 06:10:56 PM 36.1308 -89.5322 89° East 465 535 41,000  Level Memphis Center
Wed 06:11:56 PM 36.1317 -89.3675 90° East 475 547 41,000  Level Memphis Center
Wed 06:12:56 PM 36.1364 -89.2031 88° East 475 547 41,000  Level Memphis Center
Wed 06:13:56 PM 36.1392 -89.0411 89° East 475 547 41,000  Level Memphis Center
Wed 06:14:56 PM 36.1414 -88.8792 89° East 475 547 41,000  Level Memphis Center
Wed 06:15:56 PM 36.1436 -88.7197 89° East 475 547 41,000  Level Memphis Center
Wed 06:16:57 PM 36.1456 -88.5603 89° East 470 541 41,000  Level Memphis Center
Wed 06:17:57 PM 36.1453 -88.4011 90° East 464 534 41,000  Level Memphis Center
Wed 06:18:56 PM 36.1467 -88.2392 89° East 459 528 41,000  Level Memphis Center
Wed 06:19:57 PM 36.1464 -88.1053 90° East 459 528 41,000  Level Memphis Center
Wed 06:20:56 PM 36.1456 -87.9461 90° East 451 519 41,000  Level Memphis Center
Wed 06:21:56 PM 36.1464 -87.7842 90° East 464 534 41,000  Level Memphis Center
Wed 06:22:56 PM 36.1450 -87.6222 91° East 464 534 41,000  Level Memphis Center
Wed 06:23:56 PM 36.1436 -87.4631 91° East 464 534 41,000  Level Memphis Center
Wed 06:24:56 PM 36.1417 -87.2986 91° East 464 534 41,000  Level Memphis Center
Wed 06:25:56 PM 36.1397 -87.1392 91° East 464 534 41,000  Level Memphis Center
Wed 06:26:56 PM 36.1353 -86.9775 92° East 464 534 41,000  Level Memphis Center
Wed 06:27:56 PM 36.1350 -86.8106 90° East 471 542 41,000  Level Memphis Center
Wed 06:28:56 PM 36.1489 -86.6453 84° East 477 549 41,000  Level Memphis Center
Wed 06:29:56 PM 36.1964 -86.4942 69° East 472 543 41,000  Level Memphis Center
Wed 06:30:57 PM 36.2458 -86.3425 68° East 472 543 41,000  Level Memphis Center
Wed 06:31:56 PM 36.2931 -86.1933 69° East 472 543 41,000  Level Memphis Center
Wed 06:32:56 PM 36.3419 -86.0414 68° East 472 543 41,000  Level Memphis Center
Wed 06:34:00 PM 36.3863 -85.9006 69° East  Level FlightAware Approximate
Wed 06:35:04 PM 36.4492 -85.7119 69° East 467 537 41,000  Level Indianapolis Center
Wed 06:36:06 PM 36.4972 -85.5600 68° East 468 539 41,000  Level Indianapolis Center
Wed 06:37:08 PM 36.5439 -85.4078 69° East 468 539 41,000  Level Indianapolis Center
Wed 06:38:10 PM 36.5911 -85.2569 69° East 466 536 41,000  Level Indianapolis Center
Wed 06:39:12 PM 36.6383 -85.1047 69° East 468 539 41,000  Level Indianapolis Center
Wed 06:40:14 PM 36.6850 -84.9522 69° East 470 541 41,000  Level Indianapolis Center
Wed 06:41:16 PM 36.7400 -84.7689 69° East 470 541 41,000  Level Indianapolis Center
Wed 06:42:18 PM 36.7875 -84.6158 69° East 472 543 41,000  Level Indianapolis Center
Wed 06:43:20 PM 36.8353 -84.4558 69° East 470 541 41,000  Level Indianapolis Center
Wed 06:44:22 PM 36.8811 -84.3028 69° East 470 541 41,000  Level Indianapolis Center
Wed 06:45:24 PM 36.9267 -84.1511 69° East 469 540 41,000  Level Indianapolis Center
Wed 06:46:26 PM 36.9711 -84.0000 70° East 464 534 41,000  Level Indianapolis Center
Wed 06:47:28 PM 37.0169 -83.8475 69° East 466 536 41,000  Level Indianapolis Center
Wed 06:48:30 PM 37.0706 -83.6675 69° East 471 542 41,000  Level Indianapolis Center
Wed 06:49:32 PM 37.1153 -83.5147 70° East 470 541 41,000  Level Indianapolis Center
Wed 06:50:34 PM 37.1597 -83.3608 70° East 470 541 41,000  Level Indianapolis Center
Wed 06:51:36 PM 37.2044 -83.2050 70° East 471 542 41,000  Level Indianapolis Center
Wed 06:52:38 PM 37.2500 -83.0492 70° East 472 543 41,000  Level Indianapolis Center
Wed 06:53:40 PM 37.2944 -82.8906 71° East 477 549 41,000  Level Indianapolis Center
Wed 06:54:42 PM 37.3478 -82.7067 70° East 478 550 41,000  Level Indianapolis Center
Wed 06:55:45 PM 37.3917 -82.5494 71° East 476 548 41,000  Level Indianapolis Center
Wed 06:56:47 PM 37.4367 -82.3908 70° East 479 551 41,000  Level Indianapolis Center
Wed 06:57:49 PM 37.4808 -82.2342 70° East 475 547 41,000  Level Indianapolis Center
Wed 06:58:51 PM 37.5239 -82.0769 71° East 476 548 41,000  Level Indianapolis Center
Wed 06:59:53 PM 37.5672 -81.9203 71° East 473 544 41,000  Level Indianapolis Center
Wed 07:00:55 PM 37.6169 -81.7378 71° East 473 544 41,000  Level Indianapolis Center
Wed 07:01:57 PM 37.6597 -81.5792 71° East 478 550 41,000  Level Indianapolis Center
Wed 07:02:59 PM 37.7008 -81.4261 71° East 479 551 41,000  Level Indianapolis Center
Wed 07:04:01 PM 37.7417 -81.2717 71° East 477 549 41,000  Level Indianapolis Center
Wed 07:04:19 PM 37.7581 -81.2081 72° East 477 549 41,000  Level Washington Center
Wed 07:05:19 PM 37.7864 -81.0472 77° East 482 555 41,000  Level Washington Center
Wed 07:06:18 PM 37.7953 -80.8928 86° East 482 555 41,000  Level Washington Center
Wed 07:07:19 PM 37.8067 -80.7278 85° East 482 555 41,000  Level Washington Center
Wed 07:08:19 PM 37.8181 -80.5578 85° East 475 547 41,000  Level Washington Center
Wed 07:09:19 PM 37.8269 -80.3900 86° East 480 552 41,000  Level Washington Center
Wed 07:10:17 PM 37.8406 -80.2067 85° East 474 545 41,000  Level Washington Center
Wed 07:11:18 PM 37.8508 -80.0392 86° East 474 545 41,000  Level Washington Center
Wed 07:12:17 PM 37.8611 -79.8714 86° East 474 545 41,000  Level Washington Center
Wed 07:13:18 PM 37.8733 -79.7036 85° East 474 545 41,000  Level Washington Center
Wed 07:14:18 PM 37.8831 -79.5358 86° East 474 545 41,000  Level Washington Center
Wed 07:15:17 PM 37.8906 -79.3703 87° East 474 545 41,000  Level Washington Center
Wed 07:16:17 PM 37.8994 -79.2181 86° East 474 545 41,000  Level Washington Center
Wed 07:17:18 PM 37.9108 -79.0503 85° East 474 545 41,000  Level Washington Center
Wed 07:18:18 PM 37.9319 -78.8853 81° East 479 551 41,000  Level Washington Center
Wed 07:19:19 PM 37.9511 -78.7203 82° East 479 551 41,000  Level Washington Center
Wed 07:20:17 PM 37.9719 -78.5525 81° East 479 551 41,000  Level Washington Center
Wed 07:21:17 PM 37.9931 -78.3689 82° East 479 551 41,000  Level Washington Center
Wed 07:22:18 PM 38.0136 -78.2011 81° East 479 551 41,000  Level Washington Center
Wed 07:23:18 PM 38.0253 -78.0353 85° East 479 551 41,000  Level Washington Center
Wed 07:24:17 PM 38.0472 -77.8700 80° East 479 551 41,000 -101 Level Washington Center
Wed 07:25:17 PM 38.0650 -77.7017 82° East 479 551 40,800 -744 Descending Washington Center
Wed 07:26:18 PM 38.0844 -77.5333 82° East 479 551 39,500 -1,600 Descending Washington Center
Wed 07:27:17 PM 38.1017 -77.3650 83° East 479 551 37,600 -1,950 Descending Washington Center
Wed 07:28:18 PM 38.1208 -77.1992 82° East 479 551 35,600 -1,869 Descending Washington Center
Wed 07:29:19 PM 38.1600 -77.0547 71° East 478 550 33,800 -1,714 Descending Washington Center
Wed 07:30:17 PM 38.2575 -76.9403 43° Northeast 453 521 32,200 -1,627 Descending Washington Center
Wed 07:31:17 PM 38.3872 -76.8897 17° North 446 513 30,600 -1,785 Descending Washington Center
Wed 07:32:18 PM 38.5192 -76.8336 18° North 458 527 28,600 -1,918 Descending Washington Center
Wed 07:33:19 PM 38.6428 -76.7744 20° North 469 540 26,700 -1,815 Descending Washington Center
Wed 07:34:17 PM 38.7478 -76.6936 31° Northeast 458 527 25,000 -1,373 Descending Washington Center
Wed 07:35:17 PM 38.8342 -76.5936 42° Northeast 434 499 24,000 -496 Descending Washington Center
Wed 07:36:18 PM 38.9203 -76.4933 42° Northeast 416 479 24,000  Level Washington Center
Wed 07:37:18 PM 39.0128 -76.3903 41° Northeast 421 484 24,000  Level Washington Center
Wed 07:38:19 PM 39.1011 -76.2844 43° Northeast 428 493 24,000  Level Washington Center
Wed 07:39:19 PM 39.1911 -76.1833 41° Northeast 421 484 24,000  Level Washington Center
Wed 07:40:18 PM 39.2833 -76.0822 40° Northeast 421 484 24,000 -700 Level Washington Center
Wed 07:41:19 PM 39.3817 -75.9861 37° Northeast 427 491 22,600 -1,884 Descending Washington Center
Wed 07:42:19 PM 39.4797 -75.8953 36° Northeast 434 499 20,200 -2,372 Descending Washington Center
Wed 07:44:11 PM 39.6667 -75.7167 36° Northeast 401 461 15,800 -2,233 Descending Philadelphia TRACON
Wed 07:45:11 PM 39.7500 -75.6333 38° Northeast 382 440 13,800 -1,524 Descending Philadelphia TRACON
Wed 07:46:17 PM 39.8500 -75.5667 27° Northeast 345 397 12,600 -1,190 Descending Philadelphia TRACON
Wed 07:47:12 PM 39.9167 -75.5000 37° Northeast 350 403 11,400 -1,400 Descending Philadelphia TRACON
Wed 07:48:17 PM 40.0000 -75.4167 37° Northeast 302 348 9,800 -1,513 Descending Philadelphia TRACON
Wed 07:49:11 PM 40.0500 -75.3500 46° Northeast 288 331 8,400 -1,486 Descending Philadelphia TRACON
Wed 07:50:06 PM 40.0667 -75.2667 75° East 283 326 7,100 -1,500 Descending Philadelphia TRACON
Wed 07:51:11 PM 40.0833 -75.1500 79° East 281 323 5,400 -645 Descending Philadelphia TRACON
Wed 07:53:12 PM 40.1667 -74.9833 57° Northeast 282 325 5,100 -365 Descending New York TRACON
Wed 07:54:12 PM 40.2167 -74.9167 46° Northeast 284 327 4,300 -550 Descending New York TRACON
Wed 07:55:12 PM 40.2833 -74.8500 37° Northeast 283 326 4,000 -158 Descending New York TRACON
Wed 07:56:06 PM 40.3167 -74.7833 57° Northeast 286 329 4,000 -150 Level New York TRACON
Wed 07:57:12 PM 40.3833 -74.7000 44° Northeast 284 327 3,700 -429 Descending New York TRACON
Wed 07:58:12 PM 40.4500 -74.6333 37° Northeast 274 315 3,100 -350 Descending New York TRACON
Wed 07:59:12 PM 40.5000 -74.5500 52° Northeast 276 318 3,000  Descending New York TRACON
Wed 08:00:12 PM 40.5500 -74.4833 45° Northeast 277 319 3,100  Climbing New York TRACON
Wed 08:01:06 PM 40.6000 -74.4167 45° Northeast 275 316 3,000 -550 Descending New York TRACON
Wed 08:02:12 PM 40.6500 -74.3500 45° Northeast 242 278 2,000 -476 Descending New York TRACON
Wed 08:03:12 PM 40.7000 -74.3000 37° Northeast 229 264 2,000 -95 Level New York TRACON
Wed 08:04:18 PM 40.7333 -74.2333 57° Northeast 187 215 1,800 -250 Descending New York TRACON
Wed 08:05:12 PM 40.7667 -74.1833 49° Northeast 179 206 1,500 -105 Descending New York TRACON
Wed 08:06:12 PM 40.8000 -74.1500 37° Northeast 178 205 1,600 -350 Climbing New York TRACON
Wed 08:07:12 PM 40.8333 -74.1000 49° Northeast 142 163 800 -800 Descending New York TRACON
Wed 08:09:00 PM 40.8501 -74.0608 49° Northeast  Level Estimated
Wed 08:16:00 PM 40.8501 -74.0608 49° Northeast  Level Estimated
Wed 08:17:00 PM 40.8501 -74.0608 49° Northeast  Level Estimated

Login

Don't have an account? Register now (free) for customized features, flight alerts, and more!